createdAt,value
2017-09-09T00:01:25.701Z,84.56
2017-09-09T00:03:54.055Z,85.39
2017-09-09T00:06:22.393Z,85.38
2017-09-09T00:08:50.729Z,85.42
2017-09-09T00:11:19.847Z,85.18
2017-09-09T00:13:48.195Z,85.80
2017-09-09T00:16:16.531Z,85.91
2017-09-09T00:18:45.842Z,85.94
2017-09-09T00:21:14.163Z,86.53
2017-09-09T00:23:43.269Z,86.71
2017-09-09T00:26:11.587Z,86.71
2017-09-09T00:28:40.187Z,86.84
2017-09-09T00:31:08.515Z,86.09
2017-09-09T00:33:36.847Z,86.13
2017-09-09T00:36:05.189Z,86.83
2017-09-09T00:38:33.509Z,87.85
2017-09-09T00:41:01.858Z,88.08
2017-09-09T00:43:30.188Z,88.32
2017-09-09T00:45:58.585Z,87.10
2017-09-09T00:48:26.924Z,87.87
2017-09-09T00:50:55.264Z,88.20
2017-09-09T00:53:23.595Z,88.06
2017-09-09T00:55:51.918Z,87.97
2017-09-09T00:58:21.009Z,87.87
2017-09-09T01:00:49.329Z,88.08
2017-09-09T01:03:17.958Z,88.62
2017-09-09T01:05:46.279Z,89.15
2017-09-09T01:08:14.603Z,89.14
2017-09-09T01:10:42.939Z,89.05
2017-09-09T01:13:11.268Z,89.22
2017-09-09T01:15:40.664Z,88.95
2017-09-09T01:18:09.013Z,88.92
2017-09-09T01:20:37.349Z,89.20
2017-09-09T01:23:05.701Z,89.54
2017-09-09T01:25:34.041Z,89.11
2017-09-09T01:28:02.386Z,88.69
2017-09-09T01:30:31.463Z,89.18
2017-09-09T01:33:00.064Z,89.20
2017-09-09T01:35:29.160Z,89.68
2017-09-09T01:37:57.490Z,89.66
2017-09-09T01:40:25.851Z,89.66
2017-09-09T01:42:54.183Z,90.10
2017-09-09T01:45:22.532Z,90.25
2017-09-09T01:47:50.865Z,90.38
2017-09-09T01:50:19.473Z,90.12
2017-09-09T01:52:47.801Z,90.27
2017-09-09T01:55:16.137Z,90.42
2017-09-09T01:57:44.470Z,90.19
2017-09-09T02:00:14.347Z,90.25
2017-09-09T02:02:42.764Z,90.30
2017-09-09T02:05:11.094Z,90.06
2017-09-09T02:07:39.697Z,89.66
2017-09-09T02:10:08.014Z,89.83
2017-09-09T02:12:36.333Z,89.94
2017-09-09T02:15:04.687Z,90.09
2017-09-09T02:17:33.783Z,89.74
2017-09-09T02:20:02.136Z,90.41
2017-09-09T02:22:30.447Z,90.88
2017-09-09T02:24:58.785Z,90.56
2017-09-09T02:27:27.122Z,90.92
2017-09-09T02:29:55.461Z,91.10
2017-09-09T02:32:24.583Z,91.09
2017-09-09T02:34:52.915Z,91.28
2017-09-09T02:37:21.258Z,91.29
2017-09-09T02:39:49.590Z,91.36
2017-09-09T02:42:18.192Z,91.21
2017-09-09T02:44:47.270Z,90.94
2017-09-09T02:47:15.591Z,91.14
2017-09-09T02:49:43.940Z,91.17
2017-09-09T02:52:12.262Z,91.00
2017-09-09T02:54:40.603Z,91.15
2017-09-09T02:57:09.689Z,90.86
2017-09-09T02:59:39.236Z,90.85
2017-09-09T03:02:07.568Z,90.93
2017-09-09T03:04:35.910Z,91.25
2017-09-09T03:07:04.969Z,91.08
2017-09-09T03:09:34.056Z,91.08
2017-09-09T03:12:02.722Z,90.97
2017-09-09T03:14:31.054Z,89.90
2017-09-09T03:16:59.393Z,89.63
2017-09-09T03:19:27.736Z,89.85
2017-09-09T03:21:56.059Z,89.87
2017-09-09T03:24:24.399Z,89.18
2017-09-09T03:26:52.715Z,89.31
2017-09-09T03:29:22.080Z,89.40
2017-09-09T03:31:50.408Z,89.61
2017-09-09T03:34:18.798Z,89.69
2017-09-09T03:36:47.126Z,89.05
2017-09-09T03:39:15.445Z,88.70
2017-09-09T03:41:44.551Z,88.20
2017-09-09T03:44:12.864Z,88.83
2017-09-09T03:46:41.208Z,89.32
2017-09-09T03:49:09.533Z,89.40
2017-09-09T03:51:37.848Z,89.40
2017-09-09T03:54:06.947Z,88.99
2017-09-09T03:56:35.276Z,89.32
2017-09-09T03:59:03.614Z,87.85
2017-09-09T04:01:31.930Z,87.79
2017-09-09T04:04:00.541Z,87.87
2017-09-09T04:06:28.855Z,88.57
2017-09-09T04:08:57.939Z,88.53
2017-09-09T04:11:26.279Z,88.72
2017-09-09T04:13:54.612Z,88.12
2017-09-09T04:16:22.973Z,87.29
2017-09-09T04:18:51.295Z,87.63
2017-09-09T04:21:19.917Z,87.92
2017-09-09T04:23:48.258Z,88.41
2017-09-09T04:26:16.578Z,88.29
2017-09-09T04:28:44.919Z,87.72
2017-09-09T04:31:13.244Z,87.96
2017-09-09T04:33:41.591Z,87.80
2017-09-09T04:36:09.908Z,87.78
2017-09-09T04:38:38.250Z,87.64
2017-09-09T04:41:06.587Z,89.25
2017-09-09T04:43:34.899Z,88.45
2017-09-09T04:46:03.223Z,88.21
2017-09-09T04:48:31.575Z,88.03
2017-09-09T04:51:00.196Z,88.51
2017-09-09T04:53:28.538Z,88.07
2017-09-09T04:55:56.874Z,88.75
2017-09-09T04:58:25.216Z,88.76
2017-09-09T05:00:53.547Z,88.87
2017-09-09T05:03:21.894Z,88.69
2017-09-09T05:05:50.211Z,89.33
2017-09-09T05:08:18.810Z,88.11
2017-09-09T05:10:47.131Z,88.88
2017-09-09T05:13:16.274Z,88.76
2017-09-09T05:15:44.619Z,88.07
2017-09-09T05:18:12.958Z,87.82
2017-09-09T05:20:41.299Z,88.13
2017-09-09T05:23:09.632Z,88.03
2017-09-09T05:25:37.978Z,88.41
2017-09-09T05:28:06.321Z,87.47
2017-09-09T05:30:34.640Z,87.41
2017-09-09T05:33:02.970Z,87.31
2017-09-09T05:35:31.283Z,88.04
2017-09-09T05:37:59.616Z,87.34
2017-09-09T05:40:28.720Z,87.14
2017-09-09T05:42:57.067Z,86.66
2017-09-09T05:45:25.400Z,87.55
2017-09-09T05:47:53.728Z,87.90
2017-09-09T05:50:22.093Z,85.54
2017-09-09T05:52:50.437Z,86.93
2017-09-09T05:55:18.841Z,86.18
2017-09-09T05:57:47.181Z,86.30
2017-09-09T06:00:15.555Z,85.92
2017-09-09T06:02:43.909Z,86.10
2017-09-09T06:05:12.257Z,85.90
2017-09-09T06:07:40.595Z,85.51
2017-09-09T06:10:08.918Z,85.45
2017-09-09T06:12:37.249Z,86.05
2017-09-09T06:15:06.332Z,86.58
2017-09-09T06:17:34.684Z,87.22
2017-09-09T06:20:03.040Z,87.23
2017-09-09T06:22:32.316Z,88.06
2017-09-09T06:25:01.440Z,86.19
2017-09-09T06:27:29.773Z,86.32
2017-09-09T06:29:58.121Z,86.64
2017-09-09T06:32:26.474Z,87.29
2017-09-09T06:34:54.831Z,87.58
2017-09-09T06:37:23.949Z,86.38
2017-09-09T06:39:52.986Z,85.29
2017-09-09T06:42:21.330Z,85.02
2017-09-09T06:44:49.644Z,86.42
2017-09-09T06:47:17.971Z,85.14
2017-09-09T06:49:46.298Z,85.98
2017-09-09T06:52:14.643Z,85.52
2017-09-09T06:54:42.996Z,86.78
2017-09-09T06:57:11.329Z,86.57
2017-09-09T06:59:39.688Z,86.60
2017-09-09T07:02:08.016Z,85.30
2017-09-09T07:04:36.357Z,85.65
2017-09-09T07:07:04.687Z,86.30
2017-09-09T07:09:33.814Z,85.15
2017-09-09T07:12:02.134Z,84.99
2017-09-09T07:14:30.496Z,85.23
2017-09-09T07:16:58.874Z,84.83
2017-09-09T07:19:27.225Z,84.11
2017-09-09T07:21:55.573Z,85.09
2017-09-09T07:24:24.678Z,85.29
2017-09-09T07:26:53.365Z,85.27
2017-09-09T07:29:21.697Z,86.18
2017-09-09T07:31:50.040Z,85.79
2017-09-09T07:34:18.405Z,84.61
2017-09-09T07:36:47.491Z,87.31
2017-09-09T07:39:15.852Z,85.56
2017-09-09T07:41:44.210Z,85.20
2017-09-09T07:44:12.561Z,84.98
2017-09-09T07:46:40.879Z,84.52
2017-09-09T07:49:09.238Z,85.37
2017-09-09T07:51:37.594Z,84.37
2017-09-09T07:54:05.959Z,84.85
2017-09-09T07:56:34.316Z,84.56
2017-09-09T07:59:02.666Z,84.48
2017-09-09T08:01:31.020Z,85.71
2017-09-09T08:03:59.368Z,85.10
2017-09-09T08:06:27.735Z,84.36
2017-09-09T08:08:56.070Z,83.68
2017-09-09T08:11:24.401Z,83.99
2017-09-09T08:13:53.521Z,84.52
2017-09-09T08:16:21.841Z,84.75
2017-09-09T08:18:50.679Z,84.52
2017-09-09T08:21:18.991Z,84.82
2017-09-09T08:23:47.325Z,85.72
2017-09-09T08:26:15.688Z,85.17
2017-09-09T08:28:44.034Z,85.28
2017-09-09T08:31:12.398Z,85.12
2017-09-09T08:33:40.721Z,84.25
2017-09-09T08:36:09.065Z,85.26
2017-09-09T08:38:37.409Z,84.57
2017-09-09T08:41:06.518Z,85.79
2017-09-09T08:43:35.633Z,86.03
2017-09-09T08:46:03.960Z,85.81
2017-09-09T08:48:32.299Z,87.31
2017-09-09T08:51:01.555Z,86.15
2017-09-09T08:53:30.955Z,86.24
2017-09-09T08:55:59.306Z,85.63
2017-09-09T08:58:27.669Z,86.14
2017-09-09T09:00:56.036Z,86.21
2017-09-09T09:03:24.374Z,85.29
2017-09-09T09:05:53.513Z,85.55
2017-09-09T09:08:21.929Z,86.06
2017-09-09T09:10:50.550Z,86.04
2017-09-09T09:13:18.897Z,85.81
2017-09-09T09:15:47.239Z,85.76
2017-09-09T09:18:15.621Z,85.97
2017-09-09T09:20:43.955Z,86.34
2017-09-09T09:23:13.060Z,85.44
2017-09-09T09:25:41.387Z,86.44
2017-09-09T09:28:09.752Z,85.92
2017-09-09T09:30:38.109Z,85.47
2017-09-09T09:33:06.439Z,85.45
2017-09-09T09:35:34.981Z,86.81
2017-09-09T09:38:03.319Z,86.04
2017-09-09T09:40:31.681Z,84.51
2017-09-09T09:43:00.032Z,86.07
2017-09-09T09:45:28.380Z,86.23
2017-09-09T09:47:57.494Z,85.19
2017-09-09T09:50:25.833Z,85.12
2017-09-09T09:52:54.180Z,85.57
2017-09-09T09:55:22.516Z,85.19
2017-09-09T09:57:51.628Z,84.84
2017-09-09T10:00:19.950Z,85.30
2017-09-09T10:02:48.317Z,86.49
2017-09-09T10:05:16.666Z,84.90
2017-09-09T10:07:44.995Z,85.43
2017-09-09T10:10:14.132Z,84.12
2017-09-09T10:12:42.460Z,85.88
2017-09-09T10:15:10.821Z,85.31
2017-09-09T10:17:39.154Z,84.72
2017-09-09T10:20:08.277Z,84.49
2017-09-09T10:22:36.624Z,85.49
2017-09-09T10:25:22.631Z,85.65
2017-09-09T10:27:51.062Z,84.00
2017-09-09T10:30:19.406Z,86.52
2017-09-09T10:32:47.767Z,84.09
2017-09-09T10:35:16.913Z,84.06
2017-09-09T10:37:45.277Z,83.88
2017-09-09T10:40:13.651Z,84.13
2017-09-09T10:42:41.986Z,83.52
2017-09-09T10:45:10.376Z,84.83
2017-09-09T10:47:38.700Z,85.22
2017-09-09T10:50:07.043Z,82.24
2017-09-09T10:52:35.368Z,79.81
2017-09-09T10:55:03.719Z,80.88
2017-09-09T10:57:32.063Z,82.05
2017-09-09T11:00:01.050Z,82.52
2017-09-09T11:02:29.396Z,81.98
2017-09-09T11:04:57.719Z,79.91
2017-09-09T11:07:26.064Z,82.46
2017-09-09T11:09:54.397Z,78.78
2017-09-09T11:12:22.757Z,78.32
2017-09-09T11:14:51.070Z,78.40
2017-09-09T11:17:19.416Z,78.79
2017-09-09T11:19:47.796Z,77.93
2017-09-09T11:22:16.130Z,78.24
2017-09-09T11:24:44.498Z,76.26
2017-09-09T11:27:12.830Z,76.47
2017-09-09T11:29:41.309Z,75.70
2017-09-09T11:32:09.660Z,74.85
2017-09-09T11:34:38.888Z,73.12
2017-09-09T11:37:07.247Z,72.76
2017-09-09T11:39:35.576Z,72.99
2017-09-09T11:42:03.920Z,75.05
2017-09-09T11:44:32.783Z,73.78
2017-09-09T11:47:01.113Z,73.84
2017-09-09T11:49:29.471Z,74.26
2017-09-09T11:51:57.839Z,76.57
2017-09-09T11:54:26.207Z,74.83
2017-09-09T11:56:54.552Z,76.17
2017-09-09T11:59:22.900Z,73.47
2017-09-09T12:01:51.249Z,76.27
2017-09-09T12:04:19.595Z,74.31
2017-09-09T12:06:47.931Z,73.95
2017-09-09T12:09:16.252Z,74.54
2017-09-09T12:11:44.588Z,73.78
2017-09-09T12:14:12.930Z,74.18
2017-09-09T12:16:41.275Z,73.77
2017-09-09T12:19:09.619Z,76.57
2017-09-09T12:21:37.983Z,75.53
2017-09-09T12:24:06.333Z,75.89
2017-09-09T12:26:34.660Z,75.51
2017-09-09T12:29:03.616Z,75.75
2017-09-09T12:31:31.945Z,76.16
2017-09-09T12:34:00.287Z,76.26
2017-09-09T12:36:28.626Z,76.72
2017-09-09T12:38:56.979Z,78.19
2017-09-09T12:41:25.325Z,76.58
2017-09-09T12:43:53.953Z,76.97
2017-09-09T12:46:22.309Z,77.13
2017-09-09T12:48:50.630Z,79.56
2017-09-09T12:51:19.745Z,77.82
2017-09-09T12:53:48.108Z,77.09
2017-09-09T12:56:17.217Z,77.46
2017-09-09T12:58:45.569Z,75.47
2017-09-09T13:01:13.897Z,76.54
2017-09-09T13:03:42.236Z,74.55
2017-09-09T13:06:10.568Z,76.13
2017-09-09T13:08:38.931Z,77.42
2017-09-09T13:11:07.285Z,74.82
2017-09-09T13:13:36.388Z,74.67
2017-09-09T13:16:04.748Z,74.87
2017-09-09T13:18:33.084Z,74.70
2017-09-09T13:21:01.840Z,75.16
2017-09-09T13:23:30.181Z,74.48
2017-09-09T13:25:59.101Z,74.32
2017-09-09T13:28:28.243Z,74.30
2017-09-09T13:30:56.569Z,73.96
2017-09-09T13:33:24.912Z,73.47
2017-09-09T13:35:53.235Z,72.64
2017-09-09T13:38:22.019Z,73.36
2017-09-09T13:40:50.356Z,74.30
2017-09-09T13:43:18.676Z,72.95
2017-09-09T13:45:47.804Z,73.98
2017-09-09T13:48:16.139Z,71.23
2017-09-09T13:50:44.485Z,71.17
2017-09-09T13:53:12.834Z,71.71
2017-09-09T13:55:41.249Z,71.29
2017-09-09T13:58:09.581Z,72.06
2017-09-09T14:00:37.928Z,71.47
2017-09-09T14:03:06.291Z,71.69
2017-09-09T14:05:34.619Z,71.41
2017-09-09T14:08:02.988Z,71.20
2017-09-09T14:10:31.330Z,72.99
2017-09-09T14:12:59.685Z,71.78
2017-09-09T14:15:28.014Z,71.23
2017-09-09T14:17:56.375Z,70.89
2017-09-09T14:20:24.721Z,70.75
2017-09-09T14:22:53.053Z,73.42
2017-09-09T14:25:22.181Z,72.82
2017-09-09T14:27:50.518Z,72.10
2017-09-09T14:30:18.854Z,71.37
2017-09-09T14:32:47.173Z,71.71
2017-09-09T14:35:15.511Z,74.61
2017-09-09T14:37:43.865Z,72.35
2017-09-09T14:40:12.204Z,72.07
2017-09-09T14:42:41.121Z,73.25
2017-09-09T14:45:09.441Z,73.76
2017-09-09T14:47:37.767Z,73.25
2017-09-09T14:50:06.116Z,71.49
2017-09-09T14:52:34.462Z,71.29
2017-09-09T14:55:02.811Z,70.83
2017-09-09T14:57:31.154Z,72.30
2017-09-09T14:59:59.502Z,71.97
2017-09-09T15:02:27.849Z,72.00
2017-09-09T15:04:56.184Z,71.77
2017-09-09T15:07:24.536Z,70.26
2017-09-09T15:09:52.878Z,69.97
2017-09-09T15:12:21.239Z,68.47
2017-09-09T15:14:49.568Z,68.29
2017-09-09T15:17:17.934Z,68.32
2017-09-09T15:19:46.278Z,68.58
2017-09-09T15:22:14.614Z,68.54
2017-09-09T15:24:42.958Z,68.92
2017-09-09T15:27:11.287Z,69.36
2017-09-09T15:29:39.641Z,69.69
2017-09-09T15:32:07.972Z,69.67
2017-09-09T15:34:40.183Z,70.49
2017-09-09T15:37:08.515Z,69.50
2017-09-09T15:39:36.851Z,69.97
2017-09-09T15:42:05.197Z,69.84
2017-09-09T15:44:33.530Z,69.66
2017-09-09T15:47:01.876Z,71.37
2017-09-09T15:49:30.696Z,69.46
2017-09-09T15:51:59.011Z,68.33
2017-09-09T15:54:27.362Z,68.51
2017-09-09T15:56:56.590Z,68.02
2017-09-09T15:59:24.933Z,68.37
2017-09-09T16:01:53.265Z,68.71
2017-09-09T16:04:21.953Z,69.02
2017-09-09T16:06:50.286Z,69.16
2017-09-09T16:09:18.618Z,69.14
2017-09-09T16:11:47.746Z,68.49
2017-09-09T16:14:17.045Z,67.54
2017-09-09T16:16:45.383Z,68.55
2017-09-09T16:19:13.734Z,68.71
2017-09-09T16:21:42.069Z,68.65
2017-09-09T16:24:10.425Z,68.78
2017-09-09T16:26:38.834Z,69.50
2017-09-09T16:29:07.238Z,68.91
2017-09-09T16:31:35.614Z,70.82
2017-09-09T16:34:04.253Z,69.94
2017-09-09T16:36:32.994Z,70.86
2017-09-09T16:39:01.363Z,71.73
2017-09-09T16:41:29.724Z,72.32
2017-09-09T16:43:58.855Z,72.63
2017-09-09T16:46:27.194Z,73.57
2017-09-09T16:48:55.509Z,73.15
2017-09-09T16:51:24.249Z,73.62
2017-09-09T16:53:52.569Z,74.31
2017-09-09T16:56:20.884Z,75.89
2017-09-09T16:58:49.277Z,75.98
2017-09-09T17:01:17.620Z,76.53
2017-09-09T17:03:46.382Z,75.90
2017-09-09T17:06:14.718Z,76.64
2017-09-09T17:08:43.063Z,77.54
2017-09-09T17:11:11.827Z,79.25
2017-09-09T17:13:40.915Z,79.66
2017-09-09T17:16:09.278Z,80.72
2017-09-09T17:18:37.627Z,81.50
2017-09-09T17:21:06.293Z,82.34
2017-09-09T17:23:34.616Z,81.36
2017-09-09T17:26:02.944Z,81.82
2017-09-09T17:28:32.069Z,81.70
2017-09-09T17:31:00.402Z,82.27
2017-09-09T17:33:28.756Z,81.85
2017-09-09T17:35:58.656Z,83.31
2017-09-09T17:38:27.489Z,84.33
2017-09-09T17:40:55.821Z,84.40
2017-09-09T17:43:24.135Z,85.25
2017-09-09T17:45:53.263Z,84.44
2017-09-09T17:48:22.299Z,84.30
2017-09-09T17:50:50.644Z,84.13
2017-09-09T17:53:18.959Z,84.43
2017-09-09T17:55:47.670Z,84.94
2017-09-09T17:58:17.179Z,85.70
2017-09-09T18:00:46.276Z,85.74
2017-09-09T18:03:14.670Z,86.43
2017-09-09T18:05:43.009Z,86.53
2017-09-09T18:08:11.361Z,87.16
2017-09-09T18:10:39.702Z,86.43
2017-09-09T18:13:08.822Z,86.94
2017-09-09T18:15:37.160Z,87.60
2017-09-09T18:18:05.503Z,87.35
2017-09-09T18:20:33.855Z,87.92
2017-09-09T18:23:02.784Z,87.72
2017-09-09T18:25:31.527Z,87.70
2017-09-09T18:27:59.858Z,87.86
2017-09-09T18:30:28.622Z,88.08
2017-09-09T18:32:56.957Z,87.55
2017-09-09T18:35:26.079Z,86.47
2017-09-09T18:37:54.426Z,87.90
2017-09-09T18:40:22.747Z,87.38
2017-09-09T18:42:51.092Z,87.05
2017-09-09T18:45:20.174Z,86.45
2017-09-09T18:47:48.531Z,86.47
2017-09-09T18:50:16.863Z,87.39
2017-09-09T18:52:45.249Z,87.62
2017-09-09T18:55:13.582Z,88.03
2017-09-09T18:57:41.904Z,87.30
2017-09-09T19:00:10.267Z,87.25
2017-09-09T19:02:38.749Z,87.01
2017-09-09T19:05:07.861Z,87.41
2017-09-09T19:07:36.186Z,87.75
2017-09-09T19:10:04.539Z,87.84
2017-09-09T19:12:32.887Z,87.55
2017-09-09T19:15:01.975Z,87.62
2017-09-09T19:17:30.337Z,86.95
2017-09-09T19:19:58.708Z,87.92
2017-09-09T19:22:27.076Z,87.64
2017-09-09T19:24:55.476Z,88.36
2017-09-09T19:27:23.797Z,88.83
2017-09-09T19:29:52.182Z,89.09
2017-09-09T19:32:20.549Z,89.29
2017-09-09T19:34:48.927Z,89.16
2017-09-09T19:37:18.027Z,88.84
2017-09-09T19:39:47.172Z,88.73
2017-09-09T19:42:15.529Z,88.55
2017-09-09T19:44:44.905Z,88.66
2017-09-09T19:47:14.040Z,88.98
2017-09-09T19:49:42.405Z,88.83
2017-09-09T19:52:10.738Z,88.46
2017-09-09T19:54:39.099Z,89.02
2017-09-09T19:57:07.429Z,88.75
2017-09-09T19:59:35.792Z,88.21
2017-09-09T20:02:04.895Z,88.74
2017-09-09T20:04:33.511Z,89.07
2017-09-09T20:07:01.860Z,89.01
2017-09-09T20:09:30.955Z,88.58
2017-09-09T20:11:59.338Z,88.42
2017-09-09T20:14:27.679Z,87.96
2017-09-09T20:16:56.033Z,88.61
2017-09-09T20:19:24.366Z,88.22
2017-09-09T20:21:53.774Z,88.36
2017-09-09T20:24:22.092Z,88.32
2017-09-09T20:26:50.442Z,88.07
2017-09-09T20:29:18.848Z,88.38
2017-09-09T20:31:47.195Z,88.84
2017-09-09T20:34:16.299Z,88.38
2017-09-09T20:36:44.634Z,89.08
2017-09-09T20:39:13.354Z,88.84
2017-09-09T20:41:42.444Z,89.04
2017-09-09T20:44:10.788Z,89.54
2017-09-09T20:46:39.143Z,89.51
2017-09-09T20:49:07.468Z,89.61
2017-09-09T20:51:35.835Z,89.50
2017-09-09T20:54:04.168Z,89.36
2017-09-09T20:56:32.520Z,89.09
2017-09-09T20:59:01.607Z,88.58
2017-09-09T21:01:30.311Z,88.38
2017-09-09T21:03:58.632Z,87.78
2017-09-09T21:06:26.967Z,87.90
2017-09-09T21:08:56.090Z,87.92
2017-09-09T21:11:24.448Z,87.89
2017-09-09T21:13:54.347Z,87.63
2017-09-09T21:16:22.679Z,87.33
2017-09-09T21:18:51.021Z,87.73
2017-09-09T21:21:20.133Z,88.77
2017-09-09T21:23:48.456Z,88.61
2017-09-09T21:26:17.542Z,89.01
2017-09-09T21:28:46.665Z,88.67
2017-09-09T21:31:15.104Z,88.41
2017-09-09T21:33:43.450Z,88.68
2017-09-09T21:36:12.548Z,88.49
2017-09-09T21:38:40.888Z,88.44
2017-09-09T21:41:09.210Z,88.62
2017-09-09T21:43:37.552Z,88.73
2017-09-09T21:46:05.894Z,89.34
2017-09-09T21:48:34.224Z,89.60
2017-09-09T21:51:02.558Z,89.90
2017-09-09T21:53:30.904Z,89.94
2017-09-09T21:56:00.012Z,89.67
2017-09-09T21:58:28.524Z,89.57
2017-09-09T22:00:57.136Z,89.46
2017-09-09T22:03:25.479Z,90.03
2017-09-09T22:05:54.584Z,90.16
2017-09-09T22:08:23.511Z,89.85
2017-09-09T22:10:51.915Z,89.86
2017-09-09T22:13:21.040Z,88.96
2017-09-09T22:15:49.373Z,89.08
2017-09-09T22:18:17.729Z,89.11
2017-09-09T22:20:46.080Z,89.36
2017-09-09T22:23:14.425Z,89.52
2017-09-09T22:25:42.974Z,89.91
2017-09-09T22:28:11.441Z,89.82
2017-09-09T22:30:39.895Z,88.75
2017-09-09T22:33:08.265Z,88.78
2017-09-09T22:35:37.044Z,88.86
2017-09-09T22:38:05.369Z,88.05
2017-09-09T22:40:33.743Z,86.79
2017-09-09T22:43:02.085Z,87.04
2017-09-09T22:45:31.182Z,87.70
2017-09-09T22:48:00.558Z,87.85
2017-09-09T22:50:29.186Z,87.88
2017-09-09T22:52:57.510Z,87.43
2017-09-09T22:55:25.856Z,87.52
2017-09-09T22:57:54.210Z,87.14
2017-09-09T23:00:23.339Z,87.34
2017-09-09T23:02:51.667Z,87.44
2017-09-09T23:05:20.272Z,87.83
2017-09-09T23:07:48.642Z,87.86
2017-09-09T23:10:17.760Z,88.05
2017-09-09T23:12:46.108Z,88.22
2017-09-09T23:15:14.469Z,88.66
2017-09-09T23:17:42.824Z,88.60
2017-09-09T23:20:11.160Z,87.69
2017-09-09T23:22:40.671Z,87.55
2017-09-09T23:25:09.921Z,87.86
2017-09-09T23:27:38.298Z,88.54
2017-09-09T23:30:06.664Z,88.77
2017-09-09T23:32:35.018Z,88.53
2017-09-09T23:35:04.130Z,88.33
2017-09-09T23:37:32.494Z,88.48
2017-09-09T23:40:01.258Z,88.57
2017-09-09T23:42:29.592Z,88.49
2017-09-09T23:44:58.685Z,88.33
2017-09-09T23:47:27.059Z,88.37
2017-09-09T23:49:55.427Z,87.67
2017-09-09T23:52:23.872Z,87.97
2017-09-09T23:54:52.250Z,87.65
2017-09-09T23:57:20.596Z,87.20
2017-09-09T23:59:48.954Z,87.10
